Fykan — LLDJ — position and weather

sailwx.info

Track history (hours):
 
Tides and Currents Weather Stations Pressure Air Temp Water Temp Dewpoint Dewpoint Depression Visibility Wind Speed Wind Dir Waves Ship Positions

Fykan

Last reported at 2015-Apr-18 10:25 UTC. Time now 2015-Apr-18 19:20 UTC.
Position N 66°34' E 012°47'.

Length 52 m; draft 3.3 m.

Type: Ship. MMSI: 259681000.

Date/timePositionNaut miles runAvg speedWind from/ knotsBaromVisibWave heightAir tempDewpointWater temp
2015-Apr-18 10:25N 66°34' E 012°47'5 5.8
2015-Apr-18 09:33N 66°35' E 012°59'1 0.2
2015-Apr-18 06:17N 66°36' E 012°59'5 5.6
2015-Apr-18 05:28N 66°34' E 012°48'1 0.1
2015-Apr-17 16:18N 66°34' E 012°50'0 0.0
2015-Apr-17 10:27N 66°34' E 012°50'4 0.8
2015-Apr-17 05:14N 66°36' E 012°59'4 5.9
2015-Apr-17 04:33N 66°34' E 012°50'1 0.1
2015-Apr-16 18:16N 66°34' E 012°49'5 1.3
2015-Apr-16 14:33N 66°36' E 012°59'5 5.2
2015-Apr-16 13:33N 66°34' E 012°47'2 0.6
2015-Apr-16 11:04N 66°34' E 012°50'3 5.0
2015-Apr-16 10:24N 66°34' E 012°59'2 0.5
2015-Apr-16 06:21N 66°36' E 012°59'5 5.5
2015-Apr-16 05:27N 66°34' E 012°48'5 0.5
2015-Apr-15 20:10N 66°35' E 012°59'1 0.1
2015-Apr-15 14:23N 66°36' E 012°59'5 6.3
2015-Apr-15 13:33N 66°34' E 012°46'0 0.1
2015-Apr-15 10:30N 66°34' E 012°47'5 5.3
2015-Apr-15 09:32N 66°36' E 012°59'0 0.1
2015-Apr-15 06:18N 66°36' E 012°59'4 5.8
2015-Apr-15 05:32N 66°34' E 012°49'2 0.1
2015-Apr-14 16:30N 66°34' E 012°54'3 0.4
2015-Apr-14 10:33N 66°34' E 012°47'5 1.0
2015-Apr-14 05:15N 66°36' E 012°59'4 6.0
2015-Apr-14 04:33N 66°34' E 012°50'1 0.1
2015-Apr-13 18:17N 66°34' E 012°48'5 5.9
2015-Apr-13 17:31N 66°35' E 012°59'1 0.4
2015-Apr-13 14:31N 66°36' E 012°59'6 5.4
2015-Apr-13 13:29N 66°35' E 012°45'1 1.5
2015-Apr-13 12:30N 66°36' E 012°46'  
2015-Apr-10 18:20N 66°33' E 012°58'3 0.2
2015-Apr-10 05:10N 66°36' E 012°59'5 6.4
2015-Apr-10 04:27N 66°34' E 012°49'1 0.1
2015-Apr-09 18:10N 66°35' E 012°49'4 6.0
2015-Apr-09 17:27N 66°36' E 012°59'0 0.1
2015-Apr-09 14:26N 66°36' E 012°59'5 5.5
2015-Apr-09 13:31N 66°34' E 012°47'3 1.0
2015-Apr-09 10:26N 66°34' E 012°55'7 2.2
2015-Apr-09 07:17N 66°38' E 013°08'4 4.7
2015-Apr-09 06:22N 66°36' E 012°59'4 5.1
2015-Apr-09 05:32N 66°34' E 012°50'1 0.2
2015-Apr-08 20:32N 66°34' E 012°54'  
Track history (hours):
 
Tides and Currents Weather Stations Pressure Air Temp Water Temp Dewpoint Dewpoint Depression Visibility Wind Speed Wind Dir Waves Ship Positions

Fykan

Last reported at 2015-Apr-18 10:25 UTC. Time now 2015-Apr-18 19:20 UTC.
Position N 66°34' E 012°47'.

Length 52 m; draft 3.3 m.

Type: Ship. MMSI: 259681000.

Date/timePositionNaut miles runAvg speedWind from/ knotsBaromVisibWave heightAir tempDewpointWater temp
2015-Apr-18 10:25N 66°34' E 012°47'5 5.8
2015-Apr-18 09:33N 66°35' E 012°59'1 0.2
2015-Apr-18 06:17N 66°36' E 012°59'5 5.6
2015-Apr-18 05:28N 66°34' E 012°48'1 0.1
2015-Apr-17 16:18N 66°34' E 012°50'0 0.0
2015-Apr-17 10:27N 66°34' E 012°50'4 0.8
2015-Apr-17 05:14N 66°36' E 012°59'4 5.9
2015-Apr-17 04:33N 66°34' E 012°50'1 0.1
2015-Apr-16 18:16N 66°34' E 012°49'5 1.3
2015-Apr-16 14:33N 66°36' E 012°59'5 5.2
2015-Apr-16 13:33N 66°34' E 012°47'2 0.6
2015-Apr-16 11:04N 66°34' E 012°50'3 5.0
2015-Apr-16 10:24N 66°34' E 012°59'2 0.5
2015-Apr-16 06:21N 66°36' E 012°59'5 5.5
2015-Apr-16 05:27N 66°34' E 012°48'5 0.5
2015-Apr-15 20:10N 66°35' E 012°59'1 0.1
2015-Apr-15 14:23N 66°36' E 012°59'5 6.3
2015-Apr-15 13:33N 66°34' E 012°46'0 0.1
2015-Apr-15 10:30N 66°34' E 012°47'5 5.3
2015-Apr-15 09:32N 66°36' E 012°59'0 0.1
2015-Apr-15 06:18N 66°36' E 012°59'4 5.8
2015-Apr-15 05:32N 66°34' E 012°49'2 0.1
2015-Apr-14 16:30N 66°34' E 012°54'3 0.4
2015-Apr-14 10:33N 66°34' E 012°47'5 1.0
2015-Apr-14 05:15N 66°36' E 012°59'4 6.0
2015-Apr-14 04:33N 66°34' E 012°50'1 0.1
2015-Apr-13 18:17N 66°34' E 012°48'5 5.9
2015-Apr-13 17:31N 66°35' E 012°59'1 0.4
2015-Apr-13 14:31N 66°36' E 012°59'6 5.4
2015-Apr-13 13:29N 66°35' E 012°45'1 1.5
2015-Apr-13 12:30N 66°36' E 012°46'  
2015-Apr-10 18:20N 66°33' E 012°58'3 0.2
2015-Apr-10 05:10N 66°36' E 012°59'5 6.4
2015-Apr-10 04:27N 66°34' E 012°49'1 0.1
2015-Apr-09 18:10N 66°35' E 012°49'4 6.0
2015-Apr-09 17:27N 66°36' E 012°59'0 0.1
2015-Apr-09 14:26N 66°36' E 012°59'5 5.5
2015-Apr-09 13:31N 66°34' E 012°47'3 1.0
2015-Apr-09 10:26N 66°34' E 012°55'7 2.2
2015-Apr-09 07:17N 66°38' E 013°08'4 4.7
2015-Apr-09 06:22N 66°36' E 012°59'4 5.1
2015-Apr-09 05:32N 66°34' E 012°50'1 0.2
2015-Apr-08 20:32N 66°34' E 012°54'  

Dump ship's entire track history